createdAt,value
2019-04-23T00:01:35.475Z,95134.20
2019-04-23T00:07:00.338Z,95125.99
2019-04-23T00:11:51.839Z,95123.28
2019-04-23T00:14:54.810Z,95121.56
2019-04-23T00:17:15.278Z,95122.09
2019-04-23T00:19:53.402Z,95122.84
2019-04-23T00:25:47.186Z,95116.15
2019-04-23T00:27:59.452Z,95114.75
2019-04-23T00:31:13.654Z,95111.28
2019-04-23T00:33:34.298Z,95108.25
2019-04-23T00:36:25.628Z,95104.23
2019-04-23T00:38:59.279Z,95100.34
2019-04-23T00:41:33.430Z,95100.44
2019-04-23T00:44:04.054Z,95097.64
2019-04-23T00:46:28.246Z,95092.37
2019-04-23T00:51:31.397Z,95091.94
2019-04-23T00:54:02.241Z,95072.97
2019-04-23T00:56:40.295Z,95070.37
2019-04-23T00:59:21.086Z,95060.33
2019-04-23T01:04:22.834Z,95059.80
2019-04-23T01:06:56.315Z,95064.41
2019-04-23T01:09:22.219Z,95061.59
2019-04-23T01:11:49.647Z,95058.17
2019-04-23T01:14:20.288Z,95060.52
2019-04-23T01:16:55.024Z,95056.06
2019-04-23T01:19:48.626Z,95051.31
2019-04-23T01:22:12.461Z,95055.63
2019-04-23T01:25:11.260Z,95056.15
2019-04-23T01:28:15.939Z,95057.56
2019-04-23T01:31:31.669Z,95058.33
2019-04-23T01:34:20.191Z,95057.01
2019-04-23T01:36:46.448Z,95047.41
2019-04-23T01:39:15.765Z,95052.79
2019-04-23T01:44:24.001Z,95038.79
2019-04-23T01:46:54.149Z,95037.86
2019-04-23T01:49:44.997Z,95037.12
2019-04-23T01:52:18.127Z,95037.24
2019-04-23T01:54:45.512Z,95029.98
2019-04-23T01:57:18.051Z,95022.47
2019-04-23T01:59:49.431Z,95026.88
2019-04-23T02:02:22.493Z,95021.14
2019-04-23T02:07:43.834Z,95022.00
2019-04-23T02:10:39.410Z,95020.28
2019-04-23T02:13:01.582Z,95022.52
2019-04-23T02:15:49.382Z,95020.71
2019-04-23T02:18:24.991Z,95016.62
2019-04-23T02:21:33.464Z,95021.84
2019-04-23T02:26:58.935Z,95015.38
2019-04-23T02:30:06.357Z,95014.09
2019-04-23T02:33:26.267Z,95011.63
2019-04-23T02:35:50.507Z,95017.91
2019-04-23T02:40:46.775Z,95020.79
2019-04-23T02:54:28.803Z,95004.27
2019-04-23T02:56:48.674Z,94999.41
2019-04-23T02:59:18.967Z,95001.29
2019-04-23T03:06:48.069Z,94998.47
2019-04-23T03:09:32.879Z,94994.82
2019-04-23T03:14:18.699Z,94986.11
2019-04-23T03:19:37.927Z,94978.50
2019-04-23T03:25:23.263Z,94970.19
2019-04-23T03:27:34.204Z,94977.54
2019-04-23T03:30:16.415Z,94967.69
2019-04-23T03:33:02.187Z,94971.89
2019-04-23T03:35:09.051Z,94974.62
2019-04-23T03:42:47.583Z,94967.94
2019-04-23T03:48:34.680Z,94966.00
2019-04-23T03:50:56.300Z,94965.16
2019-04-23T03:56:04.765Z,94960.36
2019-04-23T04:06:23.531Z,94966.45
2019-04-23T04:08:47.442Z,94965.61
2019-04-23T04:11:14.254Z,94966.39
2019-04-23T04:14:12.023Z,94955.36
2019-04-23T04:24:29.652Z,94949.55
2019-04-23T04:27:22.093Z,94966.99
2019-04-23T04:32:03.710Z,94965.36
2019-04-23T04:37:37.701Z,94965.77
2019-04-23T04:39:53.172Z,94966.03
2019-04-23T04:44:47.321Z,94959.27
2019-04-23T04:47:33.839Z,94958.62
2019-04-23T04:50:46.029Z,94955.91
2019-04-23T04:57:58.699Z,94950.84
2019-04-23T05:01:06.319Z,94949.64
2019-04-23T05:03:23.975Z,94946.31
2019-04-23T05:16:24.266Z,94937.36
2019-04-23T05:27:16.178Z,94931.24
2019-04-23T05:29:46.546Z,94933.92
2019-04-23T05:32:14.826Z,94933.83
2019-04-23T05:35:03.388Z,94920.66
2019-04-23T05:37:42.259Z,94922.70
2019-04-23T05:40:21.755Z,94928.21
2019-04-23T05:42:40.098Z,94920.20
2019-04-23T05:45:04.265Z,94920.73
2019-04-23T05:47:44.486Z,94923.41
2019-04-23T05:50:09.656Z,94922.97
2019-04-23T05:52:47.905Z,94921.02
2019-04-23T05:55:10.887Z,94929.10
2019-04-23T05:57:39.148Z,94922.04
2019-04-23T06:00:07.645Z,94915.70
2019-04-23T06:02:45.705Z,94919.17
2019-04-23T06:05:15.633Z,94921.14
2019-04-23T06:07:42.615Z,94926.13
2019-04-23T06:12:39.984Z,94917.63
2019-04-23T06:15:11.265Z,94919.66
2019-04-23T06:17:40.548Z,94913.97
2019-04-23T06:20:28.809Z,94918.71
2019-04-23T06:25:31.131Z,94921.50
2019-04-23T06:27:49.387Z,94915.47
2019-04-23T06:30:33.166Z,94912.85
2019-04-23T06:32:42.872Z,94919.75
2019-04-23T06:35:19.039Z,94913.38
2019-04-23T06:38:22.103Z,94914.84
2019-04-23T06:40:22.033Z,94910.65
2019-04-23T06:43:15.004Z,94905.84
2019-04-23T06:48:32.105Z,94908.95
2019-04-23T06:51:04.214Z,94908.77
2019-04-23T06:53:24.618Z,94901.14
2019-04-23T06:56:03.719Z,94910.92
2019-04-23T06:58:45.029Z,94904.99
2019-04-23T07:01:00.669Z,94906.03
2019-04-23T07:06:23.886Z,94899.30
2019-04-23T07:11:28.650Z,94904.00
2019-04-23T07:13:57.186Z,94907.08
2019-04-23T07:16:21.620Z,94913.22
2019-04-23T07:19:09.614Z,94908.59
2019-04-23T07:21:25.141Z,94916.20
2019-04-23T07:24:00.708Z,94906.13
2019-04-23T07:26:30.107Z,94910.59
2019-04-23T07:28:53.277Z,94912.37
2019-04-23T07:31:28.416Z,94912.96
2019-04-23T07:33:55.790Z,94909.09
2019-04-23T07:36:29.558Z,94915.16
2019-04-23T07:42:02.698Z,94899.42
2019-04-23T07:50:08.032Z,94897.08
2019-04-23T07:52:27.780Z,94899.41
2019-04-23T07:54:54.623Z,94899.98
2019-04-23T07:57:20.163Z,94891.82
2019-04-23T07:59:56.263Z,94893.94
2019-04-23T08:02:27.491Z,94890.52
2019-04-23T08:05:04.815Z,94892.34
2019-04-23T08:07:19.830Z,94890.47
2019-04-23T08:09:53.220Z,94887.80
2019-04-23T08:12:25.006Z,94881.09
2019-04-23T08:14:59.963Z,94878.78
2019-04-23T08:17:22.429Z,94885.39
2019-04-23T08:20:00.325Z,94889.80
2019-04-23T08:25:15.769Z,94886.83
2019-04-23T08:30:32.380Z,94881.57
2019-04-23T08:32:55.389Z,94878.80
2019-04-23T08:35:19.891Z,94884.86
2019-04-23T08:40:23.354Z,94880.44
2019-04-23T08:42:52.816Z,94877.42
2019-04-23T08:46:00.885Z,94875.70
2019-04-23T08:51:22.365Z,94875.11
2019-04-23T08:56:07.450Z,94878.14
2019-04-23T08:58:47.566Z,94877.63
2019-04-23T09:03:34.367Z,94885.90
2019-04-23T09:08:37.451Z,94875.80
2019-04-23T09:11:27.619Z,94877.67
2019-04-23T09:13:53.339Z,94876.50
2019-04-23T09:16:09.123Z,94880.83
2019-04-23T09:18:39.899Z,94867.83
2019-04-23T09:21:12.789Z,94867.25
2019-04-23T09:26:22.296Z,94870.98
2019-04-23T09:32:11.188Z,94877.92
2019-04-23T09:34:36.810Z,94875.58
2019-04-23T09:37:28.614Z,94881.66
2019-04-23T09:40:16.789Z,94880.13
2019-04-23T09:48:49.034Z,94891.89
2019-04-23T09:53:47.294Z,94888.52
2019-04-23T09:56:14.602Z,94893.36
2019-04-23T09:58:48.518Z,94891.66
2019-04-23T10:01:42.536Z,94883.59
2019-04-23T10:04:30.974Z,94878.58
2019-04-23T10:07:01.947Z,94872.73
2019-04-23T10:09:18.812Z,94875.95
2019-04-23T10:11:49.273Z,94875.98
2019-04-23T10:14:18.657Z,94874.88
2019-04-23T10:16:49.340Z,94870.92
2019-04-23T10:19:19.083Z,94862.18
2019-04-23T10:21:49.148Z,94866.63
2019-04-23T10:24:19.244Z,94858.23
2019-04-23T10:26:50.187Z,94861.70
2019-04-23T10:29:38.470Z,94868.33
2019-04-23T10:32:07.564Z,94861.48
2019-04-23T10:35:28.933Z,94864.64
2019-04-23T10:37:54.700Z,94854.19
2019-04-23T10:43:15.061Z,94857.95
2019-04-23T10:46:20.457Z,94858.15
2019-04-23T10:52:12.918Z,94855.38
2019-04-23T10:59:43.329Z,94861.02
2019-04-23T11:07:29.844Z,94869.20
2019-04-23T11:17:59.274Z,94860.02
2019-04-23T11:22:51.827Z,94867.61
2019-04-23T11:27:59.728Z,94860.36
2019-04-23T11:33:02.750Z,94860.27
2019-04-23T11:35:33.907Z,94861.08
2019-04-23T11:43:20.329Z,94862.89
2019-04-23T11:51:45.982Z,94868.73
2019-04-23T12:02:12.020Z,94868.33
2019-04-23T12:05:17.228Z,94871.27
2019-04-23T12:16:20.352Z,94871.27
2019-04-23T12:19:15.313Z,94874.27
2019-04-23T12:29:06.230Z,94888.89
2019-04-23T12:32:23.934Z,94885.25
2019-04-23T12:34:49.338Z,94888.30
2019-04-23T12:37:29.698Z,94883.69
2019-04-23T12:40:03.172Z,94883.42
2019-04-23T12:42:50.483Z,94886.13
2019-04-23T12:45:05.281Z,94885.64
2019-04-23T12:47:43.756Z,94882.93
2019-04-23T12:50:31.943Z,94887.33
2019-04-23T12:52:34.194Z,94882.49
2019-04-23T12:55:06.928Z,94877.68
2019-04-23T12:57:35.771Z,94882.34
2019-04-23T12:59:59.311Z,94876.16
2019-04-23T13:05:12.678Z,94871.61
2019-04-23T13:10:11.972Z,94867.94
2019-04-23T13:15:29.376Z,94875.56
2019-04-23T13:20:38.464Z,94868.55
2019-04-23T13:23:13.556Z,94866.00
2019-04-23T13:28:27.440Z,94868.55
2019-04-23T13:30:59.045Z,94868.17
2019-04-23T13:33:36.158Z,94869.27
2019-04-23T13:38:32.086Z,94868.97
2019-04-23T13:41:33.535Z,94859.80
2019-04-23T13:44:00.912Z,94857.58
2019-04-23T13:46:37.465Z,94854.53
2019-04-23T13:49:33.121Z,94862.58
2019-04-23T13:52:02.800Z,94859.14
2019-04-23T13:54:49.860Z,94853.76
2019-04-23T13:57:32.517Z,94848.91
2019-04-23T13:59:48.448Z,94852.55
2019-04-23T14:02:31.760Z,94848.59
2019-04-23T14:12:53.433Z,94839.73
2019-04-23T14:18:10.772Z,94843.59
2019-04-23T14:20:21.530Z,94839.13
2019-04-23T14:25:16.667Z,94839.23
2019-04-23T14:27:57.763Z,94828.96
2019-04-23T14:30:29.474Z,94832.58
2019-04-23T14:32:54.263Z,94832.84
2019-04-23T14:35:25.740Z,94830.20
2019-04-23T14:38:09.431Z,94835.44
2019-04-23T14:40:29.758Z,94834.67
2019-04-23T14:43:04.389Z,94827.58
2019-04-23T14:48:14.641Z,94825.72
2019-04-23T14:54:15.611Z,94826.88
2019-04-23T14:56:24.028Z,94827.56
2019-04-23T15:03:49.140Z,94829.98
2019-04-23T15:06:35.802Z,94829.23
2019-04-23T15:09:04.326Z,94824.71
2019-04-23T15:13:53.837Z,94833.58
2019-04-23T15:29:08.016Z,94824.56
2019-04-23T15:31:57.651Z,94826.61
2019-04-23T15:37:18.959Z,94819.30
2019-04-23T15:44:16.196Z,94820.55
2019-04-23T15:49:28.821Z,94824.66
2019-04-23T15:51:56.532Z,94831.13
2019-04-23T15:54:45.457Z,94826.57
2019-04-23T15:56:59.512Z,94824.88
2019-04-23T15:59:33.388Z,94823.14
2019-04-23T16:01:41.373Z,94821.00
2019-04-23T16:04:01.377Z,94819.62
2019-04-23T16:06:34.800Z,94829.78
2019-04-23T16:09:23.182Z,94826.95
2019-04-23T16:11:51.923Z,94827.94
2019-04-23T16:14:32.620Z,94821.23
2019-04-23T16:17:08.192Z,94823.92
2019-04-23T16:22:35.591Z,94822.47
2019-04-23T16:25:08.096Z,94820.11
2019-04-23T16:27:32.014Z,94827.00
2019-04-23T16:38:21.608Z,94823.73
2019-04-23T16:46:11.887Z,94838.33
2019-04-23T16:48:58.364Z,94835.17
2019-04-23T16:51:29.630Z,94832.80
2019-04-23T16:53:37.198Z,94824.81
2019-04-23T16:56:23.810Z,94828.55
2019-04-23T17:03:46.608Z,94837.80
2019-04-23T17:06:15.853Z,94834.81
2019-04-23T17:11:19.099Z,94837.68
2019-04-23T17:13:50.295Z,94846.26
2019-04-23T17:21:18.402Z,94845.37
2019-04-23T17:28:44.488Z,94849.95
2019-04-23T17:31:32.403Z,94852.58
2019-04-23T17:36:45.891Z,94841.91
2019-04-23T17:39:25.564Z,94849.05
2019-04-23T17:42:32.811Z,94843.42
2019-04-23T17:45:09.961Z,94844.91
2019-04-23T17:50:05.965Z,94849.36
2019-04-23T17:52:38.691Z,94843.14
2019-04-23T17:55:02.721Z,94848.05
2019-04-23T17:57:32.546Z,94860.69
2019-04-23T18:05:06.273Z,94860.34
2019-04-23T18:07:43.699Z,94861.42
2019-04-23T18:10:17.961Z,94859.08
2019-04-23T18:15:17.415Z,94862.91
2019-04-23T18:20:54.247Z,94859.77
2019-04-23T18:26:27.909Z,94858.34
2019-04-23T18:29:09.986Z,94864.89
2019-04-23T18:31:45.239Z,94858.14
2019-04-23T18:34:54.084Z,94865.78
2019-04-23T18:37:14.527Z,94863.82
2019-04-23T18:40:14.144Z,94868.89
2019-04-23T18:43:08.869Z,94875.91
2019-04-23T18:45:41.575Z,94872.45
2019-04-23T18:48:33.037Z,94875.56
2019-04-23T18:50:52.173Z,94885.58
2019-04-23T18:56:12.688Z,94891.47
2019-04-23T19:06:44.143Z,94907.36
2019-04-23T19:12:35.989Z,94909.44
2019-04-23T19:20:39.870Z,94912.55
2019-04-23T19:26:53.268Z,94920.37
2019-04-23T19:31:56.921Z,94929.38
2019-04-23T19:37:38.575Z,94925.27
2019-04-23T19:40:23.434Z,94923.31
2019-04-23T19:42:48.733Z,94930.00
2019-04-23T19:45:28.419Z,94924.94
2019-04-23T19:50:44.694Z,94928.22
2019-04-23T19:53:14.246Z,94929.80
2019-04-23T19:55:35.197Z,94932.07
2019-04-23T19:58:07.029Z,94925.73
2019-04-23T20:01:15.163Z,94922.94
2019-04-23T20:03:50.122Z,94926.13
2019-04-23T20:06:26.697Z,94927.30
2019-04-23T20:11:15.661Z,94936.83
2019-04-23T20:13:55.458Z,94931.31
2019-04-23T20:16:19.508Z,94937.74
2019-04-23T20:21:08.415Z,94939.19
2019-04-23T20:24:04.684Z,94942.27
2019-04-23T20:26:21.732Z,94939.58
2019-04-23T20:29:23.312Z,94944.99
2019-04-23T20:37:12.580Z,94945.05
2019-04-23T20:42:18.278Z,94942.99
2019-04-23T20:54:56.907Z,94938.77
2019-04-23T20:57:48.462Z,94943.80
2019-04-23T21:00:30.319Z,94939.17
2019-04-23T21:05:41.843Z,94945.16
2019-04-23T21:08:15.820Z,94945.03
2019-04-23T21:11:36.646Z,94944.34
2019-04-23T21:16:36.028Z,94950.42
2019-04-23T21:18:55.006Z,94955.22
2019-04-23T21:21:33.892Z,94957.33
2019-04-23T21:24:01.353Z,94960.01
2019-04-23T21:26:35.224Z,94957.16
2019-04-23T21:31:55.591Z,94967.66
2019-04-23T21:37:06.520Z,94969.70
2019-04-23T21:40:15.411Z,94978.33
2019-04-23T21:43:01.466Z,94975.39
2019-04-23T21:45:35.353Z,94970.11
2019-04-23T21:50:39.794Z,94971.11
2019-04-23T21:53:03.477Z,94970.41
2019-04-23T21:55:39.171Z,94967.31
2019-04-23T21:58:07.535Z,94975.27
2019-04-23T22:03:53.643Z,94978.41
2019-04-23T22:09:22.601Z,94980.95
2019-04-23T22:14:40.564Z,94984.39
2019-04-23T22:17:10.258Z,94984.55
2019-04-23T22:19:40.621Z,94984.25
2019-04-23T22:22:00.811Z,94983.38
2019-04-23T22:24:46.408Z,94992.05
2019-04-23T22:27:13.299Z,94991.49
2019-04-23T22:29:40.094Z,94994.29
2019-04-23T22:32:12.841Z,94993.31
2019-04-23T22:34:50.489Z,94991.09
2019-04-23T22:42:36.394Z,94984.59
2019-04-23T22:44:59.980Z,94983.23
2019-04-23T22:47:47.978Z,94981.59
2019-04-23T22:50:14.541Z,94986.34
2019-04-23T22:55:40.353Z,94997.23
2019-04-23T23:03:54.503Z,94999.92
2019-04-23T23:06:19.761Z,95003.84
2019-04-23T23:09:02.668Z,95004.08
2019-04-23T23:11:18.545Z,95007.42
2019-04-23T23:16:21.482Z,94999.98
2019-04-23T23:18:59.977Z,95006.58
2019-04-23T23:24:13.655Z,94995.65
2019-04-23T23:26:49.803Z,94994.56
2019-04-23T23:29:15.390Z,94993.45
2019-04-23T23:32:24.404Z,95002.44
2019-04-23T23:35:07.852Z,95007.53
2019-04-23T23:37:24.569Z,95011.41
2019-04-23T23:40:04.957Z,95012.30
2019-04-23T23:42:26.558Z,95017.47
2019-04-23T23:47:56.655Z,95016.63
2019-04-23T23:50:35.353Z,95026.41
2019-04-23T23:53:00.168Z,95021.02
2019-04-23T23:57:50.685Z,95020.92
